createdAt,value
2018-01-18T00:01:00.435Z,99915
2018-01-18T00:03:29.383Z,99905
2018-01-18T00:05:57.595Z,99908
2018-01-18T00:08:25.797Z,99899
2018-01-18T00:10:53.991Z,99890
2018-01-18T00:13:22.226Z,99900
2018-01-18T00:15:51.198Z,99893
2018-01-18T00:18:19.420Z,99891
2018-01-18T00:20:47.639Z,99897
2018-01-18T00:23:15.828Z,99885
2018-01-18T00:25:44.804Z,99882
2018-01-18T00:28:13.002Z,99875
2018-01-18T00:30:41.966Z,99879
2018-01-18T00:33:10.165Z,99879
2018-01-18T00:35:39.163Z,99878
2018-01-18T00:38:08.114Z,99883
2018-01-18T00:40:36.368Z,99885
2018-01-18T00:43:04.573Z,99875
2018-01-18T00:45:32.721Z,99872
2018-01-18T00:48:00.944Z,99872
2018-01-18T00:50:29.927Z,99866
2018-01-18T00:52:58.130Z,99863
2018-01-18T00:55:26.359Z,99862
2018-01-18T00:57:54.546Z,99855
2018-01-18T01:00:22.828Z,99849
2018-01-18T01:02:51.023Z,99841
2018-01-18T01:05:19.216Z,99846
2018-01-18T01:07:47.390Z,99841
2018-01-18T01:10:15.563Z,99834
2018-01-18T01:12:43.741Z,99834
2018-01-18T01:15:12.024Z,99838
2018-01-18T01:17:40.210Z,99837
2018-01-18T01:20:08.502Z,99840
2018-01-18T01:22:36.712Z,99836
2018-01-18T01:25:04.903Z,99828
2018-01-18T01:27:34.661Z,99831
2018-01-18T01:30:02.873Z,99838
2018-01-18T01:32:31.899Z,99826
2018-01-18T01:35:00.136Z,99821
2018-01-18T01:37:28.326Z,99823
2018-01-18T01:39:56.548Z,99828
2018-01-18T01:42:25.571Z,99823
2018-01-18T01:44:54.515Z,99817
2018-01-18T01:47:22.706Z,99812
2018-01-18T01:49:50.978Z,99817
2018-01-18T01:52:19.191Z,99801
2018-01-18T01:54:47.439Z,99818
2018-01-18T01:57:15.673Z,99808
2018-01-18T01:59:43.870Z,99811
2018-01-18T02:02:12.082Z,99797
2018-01-18T02:04:41.074Z,99792
2018-01-18T02:07:10.066Z,99796
2018-01-18T02:09:38.264Z,99776
2018-01-18T02:12:06.471Z,99781
2018-01-18T02:14:34.723Z,99786
2018-01-18T02:17:02.947Z,99770
2018-01-18T02:19:31.154Z,99763
2018-01-18T02:21:59.499Z,99757
2018-01-18T02:24:28.458Z,99768
2018-01-18T02:26:56.685Z,99750
2018-01-18T02:29:24.851Z,99751
2018-01-18T02:31:53.939Z,99754
2018-01-18T02:34:22.900Z,99745
2018-01-18T02:36:51.109Z,99742
2018-01-18T02:39:20.085Z,99738
2018-01-18T02:41:48.278Z,99734
2018-01-18T02:44:16.468Z,99734
2018-01-18T02:46:44.685Z,99725
2018-01-18T02:49:12.857Z,99716
2018-01-18T02:51:41.030Z,99726
2018-01-18T02:54:09.556Z,99715
2018-01-18T02:56:37.773Z,99718
2018-01-18T02:59:06.074Z,99714
2018-01-18T03:01:34.269Z,99704
2018-01-18T03:04:03.232Z,99703
2018-01-18T03:06:31.524Z,99696
2018-01-18T03:09:00.472Z,99692
2018-01-18T03:11:28.654Z,99693
2018-01-18T03:13:56.928Z,99679
2018-01-18T03:16:25.116Z,99669
2018-01-18T03:18:53.302Z,99665
2018-01-18T03:21:21.605Z,99663
2018-01-18T03:23:50.437Z,99657
2018-01-18T03:26:18.630Z,99647
2018-01-18T03:28:46.828Z,99642
2018-01-18T03:31:15.788Z,99644
2018-01-18T03:33:43.969Z,99629
2018-01-18T03:36:12.291Z,99625
2018-01-18T03:38:40.485Z,99612
2018-01-18T03:41:08.836Z,99610
2018-01-18T03:43:37.077Z,99609
2018-01-18T03:46:05.312Z,99615
2018-01-18T03:48:33.494Z,99610
2018-01-18T03:51:01.750Z,99614
2018-01-18T03:53:29.951Z,99609
2018-01-18T03:55:58.195Z,99599
2018-01-18T03:58:26.395Z,99594
2018-01-18T04:00:54.598Z,99584
2018-01-18T04:03:22.786Z,99586
2018-01-18T04:05:51.751Z,99584
2018-01-18T04:08:20.064Z,99580
2018-01-18T04:10:48.272Z,99566
2018-01-18T04:13:16.479Z,99556
2018-01-18T04:15:44.697Z,99561
2018-01-18T04:18:12.992Z,99539
2018-01-18T04:20:41.898Z,99538
2018-01-18T04:23:10.146Z,99535
2018-01-18T04:25:38.522Z,99524
2018-01-18T04:28:06.727Z,99517
2018-01-18T04:30:35.005Z,99525
2018-01-18T04:33:03.231Z,99512
2018-01-18T04:35:31.470Z,99497
2018-01-18T04:37:59.682Z,99491
2018-01-18T04:40:27.948Z,99476
2018-01-18T04:42:56.882Z,99478
2018-01-18T04:45:25.070Z,99465
2018-01-18T04:47:53.274Z,99458
2018-01-18T04:50:22.266Z,99457
2018-01-18T04:52:51.230Z,99446
2018-01-18T04:55:19.404Z,99439
2018-01-18T04:57:47.599Z,99431
2018-01-18T05:00:15.800Z,99414
2018-01-18T05:02:44.147Z,99421
2018-01-18T05:05:12.369Z,99417
2018-01-18T05:07:40.563Z,99405
2018-01-18T05:10:08.810Z,99400
2018-01-18T05:12:37.085Z,99397
2018-01-18T05:15:05.272Z,99390
2018-01-18T05:17:33.473Z,99381
2018-01-18T05:20:01.656Z,99369
2018-01-18T05:22:30.258Z,99353
2018-01-18T05:24:58.476Z,99356
2018-01-18T05:27:26.715Z,99345
2018-01-18T05:29:55.800Z,99340
2018-01-18T05:32:24.750Z,99326
2018-01-18T05:34:52.984Z,99326
2018-01-18T05:37:21.163Z,99316
2018-01-18T05:39:49.330Z,99308
2018-01-18T05:42:17.639Z,99297
2018-01-18T05:44:45.813Z,99304
2018-01-18T05:47:14.077Z,99270
2018-01-18T05:49:42.319Z,99260
2018-01-18T05:52:10.649Z,99246
2018-01-18T05:54:38.815Z,99256
2018-01-18T05:57:06.963Z,99256
2018-01-18T05:59:35.141Z,99247
2018-01-18T06:02:03.522Z,99218
2018-01-18T06:04:31.727Z,99212
2018-01-18T06:07:01.318Z,99203
2018-01-18T06:09:29.538Z,99195
2018-01-18T06:11:58.780Z,99178
2018-01-18T06:14:26.997Z,99166
2018-01-18T06:16:55.957Z,99161
2018-01-18T06:19:24.204Z,99152
2018-01-18T06:21:52.491Z,99143
2018-01-18T06:24:20.751Z,99135
2018-01-18T06:26:48.920Z,99139
2018-01-18T06:29:20.150Z,99129
2018-01-18T06:31:48.670Z,99106
2018-01-18T06:34:16.906Z,99089
2018-01-18T06:36:45.879Z,99086
2018-01-18T06:39:14.260Z,99085
2018-01-18T06:41:42.495Z,99079
2018-01-18T06:44:10.850Z,99066
2018-01-18T06:46:43.221Z,99056
2018-01-18T06:49:11.542Z,99049
2018-01-18T06:51:39.751Z,99040
2018-01-18T06:54:08.740Z,99029
2018-01-18T06:56:37.704Z,99015
2018-01-18T06:59:05.920Z,99011
2018-01-18T07:01:34.131Z,98998
2018-01-18T07:04:02.395Z,98982
2018-01-18T07:06:30.639Z,98969
2018-01-18T07:08:58.968Z,98958
2018-01-18T07:11:27.187Z,98929
2018-01-18T07:13:55.452Z,98927
2018-01-18T07:16:24.510Z,98908
2018-01-18T07:18:52.962Z,98897
2018-01-18T07:21:21.217Z,98869
2018-01-18T07:23:49.394Z,98850
2018-01-18T07:26:17.647Z,98845
2018-01-18T07:28:46.623Z,98839
2018-01-18T07:31:14.795Z,98835
2018-01-18T07:33:42.978Z,98821
2018-01-18T07:36:12.270Z,98809
2018-01-18T07:38:40.453Z,98786
2018-01-18T07:41:08.699Z,98777
2018-01-18T07:43:37.788Z,98760
2018-01-18T07:46:05.989Z,98748
2018-01-18T07:48:34.198Z,98743
2018-01-18T07:51:02.389Z,98733
2018-01-18T07:53:30.575Z,98720
2018-01-18T07:55:58.886Z,98718
2018-01-18T07:58:27.890Z,98704
2018-01-18T08:00:56.873Z,98691
2018-01-18T08:03:31.433Z,98690
2018-01-18T08:05:59.778Z,98684
2018-01-18T08:08:28.757Z,98673
2018-01-18T08:10:57.839Z,98655
2018-01-18T08:13:26.124Z,98636
2018-01-18T08:15:55.078Z,98620
2018-01-18T08:18:23.266Z,98605
2018-01-18T08:20:51.545Z,98594
2018-01-18T08:23:19.815Z,98575
2018-01-18T08:25:49.088Z,98556
2018-01-18T08:28:17.332Z,98547
2018-01-18T08:30:46.647Z,98523
2018-01-18T08:33:14.932Z,98508
2018-01-18T08:35:44.170Z,98489
2018-01-18T08:38:12.428Z,98476
2018-01-18T08:40:40.688Z,98473
2018-01-18T08:43:25.219Z,98462
2018-01-18T08:45:54.248Z,98448
2018-01-18T08:48:24.111Z,98436
2018-01-18T08:50:52.464Z,98425
2018-01-18T08:53:20.704Z,98411
2018-01-18T08:55:49.117Z,98387
2018-01-18T08:58:17.369Z,98378
2018-01-18T09:00:45.656Z,98359
2018-01-18T09:03:14.021Z,98344
2018-01-18T09:05:42.358Z,98332
2018-01-18T09:08:11.330Z,98321
2018-01-18T09:10:39.581Z,98313
2018-01-18T09:13:07.861Z,98292
2018-01-18T09:15:36.144Z,98264
2018-01-18T09:18:04.396Z,98251
2018-01-18T09:20:32.641Z,98243
2018-01-18T09:23:01.110Z,98222
2018-01-18T09:25:29.400Z,98212
2018-01-18T09:27:57.635Z,98192
2018-01-18T09:30:26.742Z,98178
2018-01-18T09:32:55.807Z,98170
2018-01-18T09:35:24.041Z,98155
2018-01-18T09:37:52.221Z,98148
2018-01-18T09:40:20.545Z,98133
2018-01-18T09:42:49.744Z,98131
2018-01-18T09:45:20.550Z,98105
2018-01-18T09:47:49.734Z,98090
2018-01-18T09:50:18.072Z,98080
2018-01-18T09:52:46.292Z,98067
2018-01-18T09:55:14.521Z,98058
2018-01-18T09:57:42.722Z,98050
2018-01-18T10:00:10.966Z,98036
2018-01-18T10:02:39.943Z,98021
2018-01-18T10:05:09.012Z,98010
2018-01-18T10:07:37.207Z,98006
2018-01-18T10:10:05.464Z,97994
2018-01-18T10:12:33.689Z,97992
2018-01-18T10:15:01.932Z,97986
2018-01-18T10:17:30.954Z,97975
2018-01-18T10:19:59.262Z,97958
2018-01-18T10:22:27.584Z,97949
2018-01-18T10:24:56.582Z,97949
2018-01-18T10:27:25.546Z,97938
2018-01-18T10:29:53.839Z,97933
2018-01-18T10:32:22.043Z,97922
2018-01-18T10:34:50.310Z,97910
2018-01-18T10:37:18.485Z,97886
2018-01-18T10:39:46.784Z,97873
2018-01-18T10:42:15.023Z,97862
2018-01-18T10:44:43.264Z,97846
2018-01-18T10:47:11.488Z,97845
2018-01-18T10:49:39.704Z,97850
2018-01-18T10:52:07.986Z,97862
2018-01-18T10:54:36.224Z,97860
2018-01-18T10:57:04.466Z,97833
2018-01-18T10:59:34.489Z,97800
2018-01-18T11:02:02.869Z,97783
2018-01-18T11:04:31.063Z,97796
2018-01-18T11:06:59.306Z,97798
2018-01-18T11:09:28.277Z,97796
2018-01-18T11:11:56.449Z,97780
2018-01-18T11:14:24.674Z,97776
2018-01-18T11:16:52.884Z,97754
2018-01-18T11:19:21.949Z,97753
2018-01-18T11:21:50.151Z,97751
2018-01-18T11:24:18.350Z,97749
2018-01-18T11:26:46.549Z,97733
2018-01-18T11:29:14.765Z,97739
2018-01-18T11:31:42.969Z,97729
2018-01-18T11:34:11.193Z,97726
2018-01-18T11:36:39.421Z,97721
2018-01-18T11:42:17.587Z,97712
2018-01-18T11:44:45.779Z,97713
2018-01-18T11:47:14.078Z,97713
2018-01-18T11:49:42.299Z,97710
2018-01-18T11:52:10.484Z,97715
2018-01-18T11:54:38.709Z,97707
2018-01-18T11:57:06.930Z,97695
2018-01-18T11:59:35.136Z,97700
2018-01-18T12:02:03.320Z,97700
2018-01-18T12:04:31.524Z,97702
2018-01-18T12:07:00.503Z,97697
2018-01-18T12:09:29.508Z,97708
2018-01-18T12:11:58.488Z,97707
2018-01-18T12:14:27.386Z,97699
2018-01-18T12:16:56.479Z,97705
2018-01-18T12:19:25.426Z,97696
2018-01-18T12:21:53.626Z,97693
2018-01-18T12:24:21.863Z,97706
2018-01-18T12:26:50.066Z,97697
2018-01-18T12:29:18.300Z,97706
2018-01-18T12:31:46.497Z,97704
2018-01-18T12:34:14.710Z,97710
2018-01-18T12:36:43.669Z,97712
2018-01-18T12:39:11.867Z,97711
2018-01-18T12:41:40.046Z,97715
2018-01-18T12:44:09.040Z,97724
2018-01-18T12:46:38.094Z,97719
2018-01-18T12:49:06.432Z,97728
2018-01-18T12:51:34.746Z,97738
2018-01-18T12:54:03.014Z,97746
2018-01-18T12:56:31.363Z,97743
2018-01-18T12:58:59.689Z,97745
2018-01-18T13:01:28.063Z,97754
2018-01-18T13:03:56.379Z,97759
2018-01-18T13:06:25.554Z,97766
2018-01-18T13:08:53.847Z,97762
2018-01-18T13:11:22.124Z,97773
2018-01-18T13:13:51.168Z,97794
2018-01-18T13:16:20.624Z,97798
2018-01-18T13:18:50.437Z,97811
2018-01-18T13:21:18.757Z,97809
2018-01-18T13:23:47.063Z,97843
2018-01-18T13:26:15.609Z,97850
2018-01-18T13:28:44.233Z,97864
2018-01-18T13:31:12.739Z,97877
2018-01-18T13:33:41.201Z,97895
2018-01-18T13:36:10.254Z,97912
2018-01-18T13:38:39.401Z,97925
2018-01-18T13:41:07.720Z,97945
2018-01-18T13:43:36.061Z,97969
2018-01-18T13:46:04.361Z,97990
2018-01-18T13:48:32.544Z,98006
2018-01-18T13:51:00.877Z,98033
2018-01-18T14:46:38.726Z,98511
2018-01-18T14:49:07.172Z,98525
2018-01-18T14:51:36.038Z,98553
2018-01-18T14:59:29.880Z,98620
2018-01-18T15:01:58.015Z,98651
2018-01-18T15:04:27.438Z,98666
2018-01-18T15:06:55.627Z,98686
2018-01-18T15:09:23.773Z,98692
2018-01-18T15:11:52.004Z,98717
2018-01-18T15:14:21.010Z,98728
2018-01-18T15:19:35.643Z,98774
2018-01-18T15:22:03.790Z,98799
2018-01-18T15:24:31.996Z,98819
2018-01-18T15:27:00.138Z,98833
2018-01-18T15:29:28.248Z,98848
2018-01-18T15:35:06.861Z,98892
2018-01-18T15:37:35.039Z,98907
2018-01-18T15:40:06.245Z,98917
2018-01-18T15:42:34.514Z,98936
2018-01-18T15:45:02.910Z,98949
2018-01-18T15:50:30.370Z,98982
2018-01-18T15:52:58.655Z,98990
2018-01-18T15:55:27.013Z,99003
2018-01-18T15:57:57.815Z,99018
2018-01-18T16:00:26.003Z,99035
2018-01-18T16:02:54.153Z,99048
2018-01-18T16:05:23.331Z,99055
2018-01-18T16:07:51.495Z,99067
2018-01-18T16:10:19.654Z,99080
2018-01-18T16:12:47.898Z,99088
2018-01-18T16:15:16.286Z,99103
2018-01-18T16:17:44.480Z,99112
2018-01-18T16:20:12.838Z,99123
2018-01-18T16:22:41.699Z,99141
2018-01-18T16:25:09.883Z,99148
2018-01-18T16:27:38.101Z,99161
2018-01-18T16:30:06.309Z,99173
2018-01-18T16:32:34.913Z,99185
2018-01-18T16:35:03.829Z,99193
2018-01-18T16:37:32.107Z,99203
2018-01-18T16:40:01.270Z,99208
2018-01-18T16:42:29.578Z,99219
2018-01-18T16:44:57.854Z,99228
2018-01-18T16:47:26.047Z,99237
2018-01-18T16:49:54.303Z,99247
2018-01-18T16:52:22.496Z,99256
2018-01-18T16:54:50.696Z,99261
2018-01-18T16:57:19.701Z,99276
2018-01-18T16:59:48.705Z,99285
2018-01-18T17:02:16.957Z,99292
2018-01-18T17:04:45.239Z,99311
2018-01-18T17:07:14.236Z,99297
2018-01-18T17:09:43.181Z,99323
2018-01-18T17:12:11.416Z,99324
2018-01-18T17:14:39.715Z,99325
2018-01-18T17:17:07.876Z,99336
2018-01-18T17:19:36.094Z,99344
2018-01-18T17:22:04.313Z,99343
2018-01-18T17:24:33.292Z,99353
2018-01-18T17:27:02.334Z,99351
2018-01-18T17:29:30.496Z,99360
2018-01-18T17:31:58.683Z,99358
2018-01-18T17:34:26.854Z,99364
2018-01-18T17:36:57.246Z,99364
2018-01-18T17:39:25.473Z,99374
2018-01-18T17:41:53.631Z,99377
2018-01-18T17:44:21.806Z,99395
2018-01-18T17:46:50.004Z,99395
2018-01-18T17:49:18.293Z,99400
2018-01-18T17:51:47.218Z,99416
2018-01-18T17:54:15.370Z,99407
2018-01-18T17:56:44.261Z,99410
2018-01-18T17:59:12.487Z,99426
2018-01-18T18:01:40.706Z,99431
2018-01-18T18:04:08.991Z,99432
2018-01-18T18:06:37.145Z,99444
2018-01-18T18:09:06.098Z,99450
2018-01-18T18:11:34.291Z,99456
2018-01-18T18:14:02.495Z,99458
2018-01-18T18:16:30.727Z,99457
2018-01-18T18:18:58.902Z,99467
2018-01-18T18:21:27.151Z,99466
2018-01-18T18:24:01.576Z,99476
2018-01-18T18:26:29.969Z,99470
2018-01-18T18:29:00.745Z,99479
2018-01-18T18:31:28.985Z,99486
2018-01-18T18:33:57.197Z,99481
2018-01-18T18:36:25.697Z,99491
2018-01-18T18:38:54.066Z,99489
2018-01-18T18:41:22.350Z,99491
2018-01-18T18:43:50.578Z,99498
2018-01-18T18:46:18.822Z,99496
2018-01-18T18:48:46.993Z,99504
2018-01-18T18:51:15.223Z,99504
2018-01-18T18:53:44.224Z,99504
2018-01-18T18:56:12.417Z,99504
2018-01-18T18:58:42.426Z,99508
2018-01-18T19:01:11.211Z,99521
2018-01-18T19:03:39.499Z,99524
2018-01-18T19:06:07.685Z,99524
2018-01-18T19:08:35.999Z,99534
2018-01-18T19:11:04.226Z,99539
2018-01-18T19:13:32.404Z,99546
2018-01-18T19:16:00.637Z,99555
2018-01-18T19:18:29.706Z,99549
2018-01-18T19:20:57.938Z,99564
2018-01-18T19:23:26.368Z,99555
2018-01-18T19:25:54.582Z,99569
2018-01-18T19:28:22.920Z,99577
2018-01-18T19:30:51.904Z,99570
2018-01-18T19:33:20.321Z,99576
2018-01-18T19:35:48.582Z,99576
2018-01-18T19:38:17.051Z,99584
2018-01-18T19:40:45.803Z,99590
2018-01-18T20:15:09.722Z,99621
2018-01-18T20:17:38.033Z,99625
2018-01-18T20:20:06.269Z,99629
2018-01-18T20:22:35.328Z,99622
2018-01-18T20:25:04.627Z,99633
2018-01-18T20:27:33.560Z,99640
2018-01-18T20:30:01.884Z,99651
2018-01-18T20:32:30.316Z,99654
2018-01-18T20:34:58.964Z,99664
2018-01-18T20:37:27.206Z,99662
2018-01-18T20:39:55.522Z,99667
2018-01-18T20:42:27.001Z,99662
2018-01-18T20:44:55.592Z,99662
2018-01-18T20:47:27.659Z,99667
2018-01-18T20:49:56.277Z,99675
2018-01-18T20:52:25.393Z,99680
2018-01-18T20:54:55.302Z,99685
2018-01-18T20:57:23.597Z,99685
2018-01-18T20:59:57.327Z,99692
2018-01-18T21:02:25.838Z,99684
2018-01-18T21:04:54.152Z,99689
2018-01-18T21:07:22.423Z,99691
2018-01-18T21:09:51.592Z,99690
2018-01-18T21:12:19.826Z,99692
2018-01-18T21:14:48.011Z,99687
2018-01-18T21:17:16.227Z,99692
2018-01-18T21:19:44.464Z,99687
2018-01-18T21:22:13.238Z,99695
2018-01-18T21:24:41.452Z,99688
2018-01-18T21:27:09.760Z,99708
2018-01-18T21:29:38.027Z,99699
2018-01-18T21:32:06.270Z,99700
2018-01-18T21:34:35.058Z,99704
2018-01-18T21:37:03.310Z,99696
2018-01-18T21:39:31.635Z,99697
2018-01-18T21:41:59.969Z,99707
2018-01-18T21:44:28.252Z,99707
2018-01-18T22:29:02.400Z,99752
2018-01-18T22:31:37.080Z,99743
2018-01-18T22:34:06.860Z,99749
2018-01-18T22:36:35.021Z,99745
2018-01-18T22:39:03.199Z,99750
2018-01-18T22:41:31.489Z,99750
2018-01-18T22:43:59.639Z,99755
2018-01-18T22:46:27.858Z,99754
2018-01-18T22:48:56.005Z,99757
2018-01-18T22:51:24.165Z,99764
2018-01-18T22:53:52.335Z,99769
2018-01-18T22:56:20.533Z,99765
2018-01-18T22:58:48.683Z,99775
2018-01-18T23:01:16.866Z,99766
2018-01-18T23:03:45.127Z,99781
2018-01-18T23:06:13.916Z,99775
2018-01-18T23:08:44.361Z,99780
2018-01-18T23:11:12.535Z,99777
2018-01-18T23:13:41.453Z,99790
2018-01-18T23:16:09.608Z,99791
2018-01-18T23:18:37.750Z,99797
2018-01-18T23:21:05.951Z,99794
2018-01-18T23:23:34.263Z,99802
2018-01-18T23:26:02.562Z,99797
2018-01-18T23:28:30.995Z,99788
2018-01-18T23:30:59.213Z,99792
2018-01-18T23:33:27.395Z,99788
2018-01-18T23:35:55.562Z,99800
2018-01-18T23:38:23.776Z,99800
2018-01-18T23:40:51.955Z,99803
2018-01-18T23:43:20.910Z,99802
2018-01-18T23:45:49.075Z,99800
2018-01-18T23:48:17.246Z,99803
2018-01-18T23:50:45.450Z,99800
2018-01-18T23:53:14.383Z,99801
2018-01-18T23:55:42.558Z,99802
2018-01-18T23:58:10.715Z,99803
